createdAt,value
2022-10-19T00:01:16.271Z,99.24
2022-10-19T00:03:45.168Z,99.76
2022-10-19T00:06:25.041Z,100.00
2022-10-19T00:09:05.219Z,100.00
2022-10-19T00:11:33.011Z,100.00
2022-10-19T00:14:00.677Z,100.00
2022-10-19T00:16:29.913Z,100.00
2022-10-19T00:18:58.334Z,100.00
2022-10-19T00:21:25.879Z,100.00
2022-10-19T00:23:52.716Z,100.00
2022-10-19T00:26:19.580Z,100.00
2022-10-19T00:28:46.737Z,100.00
2022-10-19T00:31:17.137Z,100.00
2022-10-19T00:33:46.654Z,100.00
2022-10-19T00:36:34.209Z,100.00
2022-10-19T00:39:02.045Z,100.00
2022-10-19T00:41:31.204Z,100.00
2022-10-19T00:44:00.848Z,100.00
2022-10-19T00:46:30.370Z,100.00
2022-10-19T00:49:01.440Z,100.00
2022-10-19T00:51:29.506Z,100.00
2022-10-19T00:53:56.917Z,100.00
2022-10-19T00:56:24.444Z,100.00
2022-10-19T00:58:51.352Z,100.00
2022-10-19T01:01:20.696Z,100.00
2022-10-19T01:03:48.098Z,100.00
2022-10-19T01:06:17.584Z,100.00
2022-10-19T01:08:44.565Z,100.00
2022-10-19T01:11:39.054Z,100.00
2022-10-19T01:14:24.974Z,100.00
2022-10-19T01:17:14.113Z,100.00
2022-10-19T01:19:59.301Z,100.00
2022-10-19T01:22:55.422Z,100.00
2022-10-19T01:25:24.983Z,100.00
2022-10-19T01:28:16.144Z,100.00
2022-10-19T01:31:01.996Z,100.00
2022-10-19T01:33:39.788Z,100.00
2022-10-19T01:36:34.629Z,100.00
2022-10-19T01:39:25.085Z,100.00
2022-10-19T01:42:03.232Z,100.00
2022-10-19T01:44:45.477Z,100.00
2022-10-19T01:47:18.853Z,100.00
2022-10-19T01:50:10.454Z,100.00
2022-10-19T01:52:38.146Z,100.00
2022-10-19T01:55:05.752Z,100.00
2022-10-19T01:57:34.746Z,100.00
2022-10-19T02:00:07.360Z,100.00
2022-10-19T02:02:41.509Z,100.00
2022-10-19T02:05:08.869Z,100.00
2022-10-19T02:07:37.666Z,100.00
2022-10-19T02:10:04.974Z,100.00
2022-10-19T02:12:33.170Z,100.00
2022-10-19T02:15:06.497Z,100.00
2022-10-19T02:17:38.336Z,100.00
2022-10-19T02:20:05.710Z,100.00
2022-10-19T02:22:32.816Z,100.00
2022-10-19T02:25:00.280Z,100.00
2022-10-19T02:27:27.213Z,100.00
2022-10-19T02:29:54.278Z,100.00
2022-10-19T02:32:21.599Z,100.00
2022-10-19T02:34:48.465Z,100.00
2022-10-19T02:37:15.466Z,100.00
2022-10-19T02:39:42.644Z,100.00
2022-10-19T02:42:18.726Z,99.35
2022-10-19T02:44:53.354Z,97.85
2022-10-19T02:47:29.872Z,97.90
2022-10-19T02:49:56.963Z,98.19
2022-10-19T02:52:23.841Z,98.53
2022-10-19T02:54:50.676Z,98.79
2022-10-19T02:57:23.505Z,98.34
2022-10-19T02:59:51.037Z,98.82
2022-10-19T03:02:19.518Z,98.80
2022-10-19T03:07:18.098Z,100.00
2022-10-19T03:09:45.374Z,100.00
2022-10-19T03:12:12.850Z,100.00
2022-10-19T03:14:39.756Z,100.00
2022-10-19T03:17:06.929Z,98.16
2022-10-19T03:19:34.742Z,96.54
2022-10-19T03:22:01.693Z,95.27
2022-10-19T03:24:30.293Z,94.04
2022-10-19T03:26:57.168Z,92.43
2022-10-19T03:29:24.016Z,91.56
2022-10-19T03:31:51.390Z,91.06
2022-10-19T03:34:21.078Z,92.58
2022-10-19T03:36:50.986Z,93.65
2022-10-19T03:39:20.979Z,93.71
2022-10-19T03:41:47.817Z,94.76
2022-10-19T03:44:14.654Z,95.74
2022-10-19T03:46:41.797Z,95.37
2022-10-19T03:49:09.313Z,96.00
2022-10-19T03:51:36.392Z,96.52
2022-10-19T03:54:09.087Z,96.76
2022-10-19T03:56:36.436Z,97.22
2022-10-19T03:59:05.144Z,97.16
2022-10-19T04:01:43.893Z,97.46
2022-10-19T04:04:17.284Z,97.84
2022-10-19T04:06:45.909Z,97.77
2022-10-19T04:09:22.509Z,97.09
2022-10-19T04:11:52.248Z,95.74
2022-10-19T04:14:31.691Z,94.54
2022-10-19T04:17:01.031Z,92.94
2022-10-19T04:19:28.247Z,91.93
2022-10-19T04:21:55.205Z,91.42
2022-10-19T04:24:22.149Z,91.67
2022-10-19T04:26:54.354Z,91.94
2022-10-19T04:29:25.068Z,91.57
2022-10-19T04:31:55.117Z,92.16
2022-10-19T04:34:22.027Z,92.93
2022-10-19T04:36:53.065Z,93.65
2022-10-19T04:39:23.188Z,92.97
2022-10-19T04:41:50.021Z,92.22
2022-10-19T04:44:19.217Z,91.42
2022-10-19T04:46:48.434Z,91.42
2022-10-19T04:49:17.957Z,91.14
2022-10-19T04:51:50.088Z,91.38
2022-10-19T04:54:16.962Z,92.08
2022-10-19T04:56:43.803Z,92.09
2022-10-19T04:59:10.894Z,92.33
2022-10-19T05:01:38.243Z,92.99
2022-10-19T05:04:05.074Z,93.47
2022-10-19T05:06:32.375Z,94.04
2022-10-19T05:08:59.938Z,94.35
2022-10-19T05:11:27.194Z,94.48
2022-10-19T05:13:54.310Z,95.80
2022-10-19T05:16:22.791Z,96.63
2022-10-19T05:18:56.176Z,97.39
2022-10-19T05:21:23.393Z,97.28
2022-10-19T05:23:54.491Z,97.05
2022-10-19T05:26:23.551Z,97.12
2022-10-19T05:28:56.557Z,97.37
2022-10-19T05:31:26.028Z,98.43
2022-10-19T05:33:53.205Z,99.66
2022-10-19T05:36:25.523Z,100.00
2022-10-19T05:38:53.740Z,99.87
2022-10-19T05:41:21.601Z,99.75
2022-10-19T05:43:55.695Z,100.00
2022-10-19T05:46:23.167Z,100.00
2022-10-19T05:48:50.032Z,100.00
2022-10-19T05:51:19.700Z,100.00
2022-10-19T05:53:46.812Z,100.00
2022-10-19T05:56:18.666Z,100.00
2022-10-19T05:58:45.854Z,100.00
2022-10-19T06:01:13.998Z,100.00
2022-10-19T06:03:41.367Z,100.00
2022-10-19T06:06:09.249Z,100.00
2022-10-19T06:08:36.111Z,100.00
2022-10-19T06:11:12.927Z,100.00
2022-10-19T06:13:40.604Z,92.90
2022-10-19T06:16:08.917Z,87.48
2022-10-19T06:18:35.862Z,83.51
2022-10-19T06:21:04.496Z,81.21
2022-10-19T06:23:32.819Z,78.56
2022-10-19T06:26:02.735Z,77.75
2022-10-19T06:28:29.613Z,76.28
2022-10-19T06:30:58.187Z,76.21
2022-10-19T06:33:25.748Z,76.55
2022-10-19T06:35:52.753Z,75.36
2022-10-19T06:38:19.858Z,75.62
2022-10-19T06:40:46.738Z,74.20
2022-10-19T06:43:13.585Z,74.75
2022-10-19T06:45:40.793Z,72.84
2022-10-19T06:48:07.964Z,72.59
2022-10-19T06:50:35.419Z,72.68
2022-10-19T06:53:02.641Z,72.32
2022-10-19T06:55:29.509Z,71.08
2022-10-19T06:57:58.582Z,71.38
2022-10-19T07:00:25.754Z,69.42
2022-10-19T07:02:52.711Z,69.64
2022-10-19T07:05:19.710Z,69.94
2022-10-19T07:07:47.120Z,69.83
2022-10-19T07:10:13.976Z,70.07
2022-10-19T07:12:40.833Z,69.96
2022-10-19T07:15:08.393Z,68.92
2022-10-19T07:17:38.074Z,68.59
2022-10-19T07:20:05.352Z,68.22
2022-10-19T07:22:32.494Z,68.65
2022-10-19T07:24:59.351Z,66.40
2022-10-19T07:27:26.234Z,66.28
2022-10-19T07:29:53.336Z,68.13
2022-10-19T07:32:20.191Z,66.84
2022-10-19T07:34:47.362Z,65.65
2022-10-19T07:37:14.481Z,70.44
2022-10-19T07:39:41.337Z,70.45
2022-10-19T07:42:08.271Z,68.17
2022-10-19T07:44:35.535Z,70.17
2022-10-19T07:47:04.620Z,67.44
2022-10-19T07:49:31.479Z,69.76
2022-10-19T07:51:59.066Z,67.13
2022-10-19T07:54:27.411Z,66.62
2022-10-19T07:56:54.349Z,68.19
2022-10-19T07:59:21.462Z,68.41
2022-10-19T08:01:53.050Z,66.91
2022-10-19T08:07:10.838Z,67.61
2022-10-19T08:09:52.786Z,68.80
2022-10-19T08:12:20.634Z,68.00
2022-10-19T08:14:48.212Z,67.35
2022-10-19T08:17:17.601Z,66.41
2022-10-19T08:19:48.165Z,65.62
2022-10-19T08:22:15.355Z,65.88
2022-10-19T08:24:42.210Z,65.97
2022-10-19T08:27:09.217Z,63.83
2022-10-19T08:29:36.383Z,62.86
2022-10-19T08:32:06.114Z,61.35
2022-10-19T08:34:33.315Z,60.38
2022-10-19T08:37:06.771Z,59.67
2022-10-19T08:39:41.882Z,61.18
2022-10-19T08:42:16.483Z,61.15
2022-10-19T08:44:58.483Z,60.27
2022-10-19T08:47:28.506Z,59.96
2022-10-19T08:49:56.043Z,58.27
2022-10-19T08:52:30.748Z,56.31
2022-10-19T08:55:09.150Z,54.80
2022-10-19T08:57:52.978Z,57.45
2022-10-19T09:03:27.264Z,51.08
2022-10-19T09:06:44.853Z,49.99
2022-10-19T09:09:13.170Z,48.92
2022-10-19T09:11:43.191Z,47.28
2022-10-19T09:14:19.013Z,47.08
2022-10-19T09:16:46.421Z,46.79
2022-10-19T09:19:25.906Z,49.64
2022-10-19T09:21:57.513Z,45.79
2022-10-19T09:24:44.234Z,42.51
2022-10-19T09:27:21.256Z,42.42
2022-10-19T09:29:52.518Z,40.45
2022-10-19T09:32:24.683Z,45.54
2022-10-19T09:34:53.349Z,50.97
2022-10-19T09:37:25.939Z,53.12
2022-10-19T09:39:55.624Z,58.04
2022-10-19T09:42:26.403Z,58.02
2022-10-19T09:44:55.294Z,58.36
2022-10-19T09:47:37.673Z,58.86
2022-10-19T09:50:14.541Z,57.73
2022-10-19T09:52:43.897Z,56.54
2022-10-19T09:55:13.646Z,56.11
2022-10-19T09:57:43.972Z,56.57
2022-10-19T10:00:22.625Z,56.84
2022-10-19T10:02:54.507Z,57.02
2022-10-19T10:05:31.578Z,57.94
2022-10-19T10:07:58.768Z,58.65
2022-10-19T10:10:35.733Z,57.44
2022-10-19T10:13:03.131Z,55.56
2022-10-19T10:15:36.896Z,56.06
2022-10-19T10:18:04.117Z,55.51
2022-10-19T10:20:32.608Z,55.43
2022-10-19T10:23:05.919Z,55.00
2022-10-19T10:25:34.911Z,55.04
2022-10-19T10:28:21.824Z,56.09
2022-10-19T10:31:02.805Z,56.43
2022-10-19T10:33:44.216Z,53.95
2022-10-19T10:36:12.465Z,53.70
2022-10-19T10:38:49.546Z,54.59
2022-10-19T10:41:18.680Z,51.96
2022-10-19T10:43:57.552Z,53.00
2022-10-19T10:46:29.628Z,54.04
2022-10-19T10:49:02.436Z,53.13
2022-10-19T10:51:39.802Z,53.65
2022-10-19T10:54:25.582Z,54.32
2022-10-19T10:57:13.131Z,51.41
2022-10-19T10:59:49.146Z,54.04
2022-10-19T11:02:32.819Z,54.75
2022-10-19T11:05:07.701Z,55.28
2022-10-19T11:07:36.082Z,56.13
2022-10-19T11:10:30.588Z,57.51
2022-10-19T11:13:17.382Z,54.37
2022-10-19T11:15:53.099Z,49.67
2022-10-19T11:18:30.573Z,49.93
2022-10-19T11:21:12.062Z,49.70
2022-10-19T11:23:48.398Z,48.79
2022-10-19T11:26:25.129Z,50.42
2022-10-19T11:29:14.026Z,52.17
2022-10-19T11:31:49.232Z,52.24
2022-10-19T11:34:31.525Z,51.96
2022-10-19T11:37:23.128Z,52.84
2022-10-19T11:40:09.163Z,52.51
2022-10-19T11:43:15.573Z,53.44
2022-10-19T11:45:54.658Z,53.17
2022-10-19T11:48:28.287Z,53.15
2022-10-19T11:51:16.976Z,54.58
2022-10-19T11:53:54.811Z,55.45
2022-10-19T11:57:01.690Z,55.35
2022-10-19T11:59:32.076Z,55.80
2022-10-19T12:02:42.011Z,55.89
2022-10-19T12:05:20.102Z,55.42
2022-10-19T12:08:14.382Z,56.22
2022-10-19T12:10:48.545Z,56.17
2022-10-19T12:13:21.943Z,55.95
2022-10-19T12:15:53.915Z,54.53
2022-10-19T12:18:23.547Z,55.16
2022-10-19T12:20:52.454Z,55.47
2022-10-19T12:23:26.859Z,56.75
2022-10-19T12:25:56.607Z,56.38
2022-10-19T12:28:31.844Z,56.98
2022-10-19T12:31:00.037Z,56.40
2022-10-19T12:33:41.062Z,56.18
2022-10-19T12:36:26.680Z,55.53
2022-10-19T12:39:05.152Z,55.24
2022-10-19T12:41:54.042Z,56.23
2022-10-19T12:44:42.718Z,56.04
2022-10-19T12:47:19.558Z,56.37
2022-10-19T12:49:51.138Z,57.25
2022-10-19T12:52:40.039Z,55.05
2022-10-19T12:55:15.870Z,53.90
2022-10-19T12:57:47.980Z,53.94
2022-10-19T13:00:25.765Z,53.73
2022-10-19T13:03:17.422Z,53.47
2022-10-19T13:05:56.900Z,51.96
2022-10-19T13:08:33.132Z,51.47
2022-10-19T13:11:06.312Z,50.16
2022-10-19T13:14:24.918Z,48.63
2022-10-19T13:17:01.445Z,49.09
2022-10-19T13:19:29.311Z,50.14
2022-10-19T13:22:02.065Z,50.47
2022-10-19T13:24:34.810Z,51.46
2022-10-19T13:27:04.769Z,51.69
2022-10-19T13:29:38.397Z,52.09
2022-10-19T13:32:33.346Z,51.82
2022-10-19T13:35:27.120Z,50.83
2022-10-19T13:38:09.120Z,50.66
2022-10-19T13:40:55.978Z,51.25
2022-10-19T13:43:24.179Z,51.45
2022-10-19T13:45:59.253Z,50.77
2022-10-19T13:48:45.259Z,49.59
2022-10-19T13:51:40.560Z,48.60
2022-10-19T13:54:19.722Z,49.82
2022-10-19T13:57:09.415Z,50.30
2022-10-19T13:59:54.785Z,50.97
2022-10-19T14:03:09.329Z,51.37
2022-10-19T14:05:57.064Z,51.62
2022-10-19T14:08:30.081Z,52.08
2022-10-19T14:11:03.806Z,53.01
2022-10-19T14:13:31.273Z,53.16
2022-10-19T14:16:02.805Z,53.80
2022-10-19T14:18:34.526Z,53.10
2022-10-19T14:21:05.339Z,52.23
2022-10-19T14:23:39.760Z,51.64
2022-10-19T14:26:21.974Z,49.13
2022-10-19T14:28:54.181Z,48.85
2022-10-19T14:31:23.976Z,49.56
2022-10-19T14:33:52.389Z,49.87
2022-10-19T14:36:25.534Z,50.69
2022-10-19T14:38:56.303Z,51.85
2022-10-19T14:41:28.856Z,52.46
2022-10-19T14:43:57.311Z,52.29
2022-10-19T14:46:30.406Z,52.92
2022-10-19T14:49:06.544Z,53.33
2022-10-19T14:51:40.945Z,53.98
2022-10-19T14:54:23.404Z,54.77
2022-10-19T14:56:56.377Z,54.99
2022-10-19T14:59:27.019Z,54.80
2022-10-19T15:01:56.262Z,55.70
2022-10-19T15:04:32.712Z,55.56
2022-10-19T15:07:01.479Z,55.35
2022-10-19T15:09:43.712Z,55.69
2022-10-19T15:12:16.973Z,55.24
2022-10-19T15:14:44.461Z,55.69
2022-10-19T15:17:25.304Z,56.25
2022-10-19T15:19:53.587Z,56.22
2022-10-19T15:22:28.094Z,56.74
2022-10-19T15:24:59.926Z,56.75
2022-10-19T15:27:50.050Z,57.14
2022-10-19T15:30:17.142Z,57.87
2022-10-19T15:32:45.667Z,58.57
2022-10-19T15:35:20.046Z,58.50
2022-10-19T15:37:48.695Z,58.59
2022-10-19T15:40:36.245Z,58.88
2022-10-19T15:43:25.066Z,59.43
2022-10-19T15:46:03.295Z,59.98
2022-10-19T15:48:42.886Z,60.51
2022-10-19T15:51:24.829Z,60.57
2022-10-19T15:53:52.621Z,60.67
2022-10-19T15:56:20.169Z,61.36
2022-10-19T15:58:51.426Z,61.10
2022-10-19T16:01:22.516Z,61.27
2022-10-19T16:03:49.767Z,61.86
2022-10-19T16:06:17.738Z,62.15
2022-10-19T16:08:46.418Z,62.58
2022-10-19T16:11:18.101Z,63.27
2022-10-19T16:13:45.526Z,63.89
2022-10-19T16:16:15.635Z,63.71
2022-10-19T16:18:42.744Z,64.26
2022-10-19T16:21:09.610Z,64.21
2022-10-19T16:23:41.812Z,64.08
2022-10-19T16:26:09.846Z,64.24
2022-10-19T16:28:36.721Z,63.68
2022-10-19T16:31:03.639Z,63.23
2022-10-19T16:33:30.750Z,63.65
2022-10-19T16:35:57.607Z,64.05
2022-10-19T16:38:24.520Z,63.76
2022-10-19T16:40:51.716Z,64.09
2022-10-19T16:43:18.621Z,64.76
2022-10-19T16:45:45.484Z,64.33
2022-10-19T16:48:12.847Z,65.15
2022-10-19T16:50:39.775Z,64.47
2022-10-19T16:53:10.339Z,63.61
2022-10-19T16:55:38.278Z,63.62
2022-10-19T16:58:05.539Z,63.49
2022-10-19T17:00:32.939Z,63.39
2022-10-19T17:03:00.047Z,63.48
2022-10-19T17:05:26.957Z,63.36
2022-10-19T17:07:53.847Z,63.65
2022-10-19T17:10:21.046Z,63.50
2022-10-19T17:12:47.967Z,63.66
2022-10-19T17:15:44.697Z,64.21
2022-10-19T17:18:01.935Z,64.38
2022-10-19T17:20:29.030Z,65.04
2022-10-19T17:22:55.899Z,65.23
2022-10-19T17:25:23.026Z,65.07
2022-10-19T17:27:50.894Z,65.47
2022-10-19T17:30:18.039Z,66.36
2022-10-19T17:32:45.159Z,66.68
2022-10-19T17:35:12.011Z,66.70
2022-10-19T17:37:38.929Z,66.70
2022-10-19T17:40:06.651Z,66.92
2022-10-19T17:42:36.522Z,67.29
2022-10-19T17:45:03.570Z,67.47
2022-10-19T17:47:30.773Z,67.75
2022-10-19T17:49:57.695Z,67.87
2022-10-19T17:52:24.576Z,68.31
2022-10-19T17:55:11.097Z,68.20
2022-10-19T17:57:38.588Z,68.41
2022-10-19T18:00:07.214Z,68.75
2022-10-19T18:02:39.824Z,68.50
2022-10-19T18:05:07.327Z,68.56
2022-10-19T18:07:34.427Z,68.38
2022-10-19T18:10:01.602Z,68.67
2022-10-19T18:12:28.734Z,68.93
2022-10-19T18:14:55.585Z,69.26
2022-10-19T18:17:25.439Z,69.19
2022-10-19T18:19:54.872Z,69.27
2022-10-19T18:22:21.869Z,69.45
2022-10-19T18:24:49.554Z,69.42
2022-10-19T18:27:16.675Z,69.71
2022-10-19T18:29:43.551Z,69.79
2022-10-19T18:32:11.712Z,69.82
2022-10-19T18:34:38.852Z,70.19
2022-10-19T18:37:07.210Z,70.27
2022-10-19T18:39:34.175Z,70.73
2022-10-19T18:42:01.269Z,71.24
2022-10-19T18:44:30.419Z,71.50
2022-10-19T18:46:59.481Z,71.66
2022-10-19T18:49:26.655Z,72.10
2022-10-19T18:51:55.470Z,72.30
2022-10-19T18:54:24.101Z,72.75
2022-10-19T18:56:51.228Z,73.45
2022-10-19T18:59:20.728Z,73.73
2022-10-19T19:01:47.637Z,74.40
2022-10-19T19:04:16.330Z,74.49
2022-10-19T19:06:43.198Z,74.05
2022-10-19T19:09:11.264Z,74.06
2022-10-19T19:11:40.846Z,74.16
2022-10-19T19:14:10.589Z,74.38
2022-10-19T19:16:38.551Z,74.34
2022-10-19T19:19:06.394Z,74.83
2022-10-19T19:21:35.007Z,75.09
2022-10-19T19:24:03.976Z,75.43
2022-10-19T19:26:33.503Z,75.66
2022-10-19T19:29:00.378Z,75.74
2022-10-19T19:31:27.256Z,76.92
2022-10-19T19:33:54.381Z,77.33
2022-10-19T19:36:21.419Z,77.29
2022-10-19T19:38:50.637Z,78.16
2022-10-19T19:41:17.835Z,77.59
2022-10-19T19:43:44.822Z,77.51
2022-10-19T19:46:14.551Z,78.13
2022-10-19T19:48:43.125Z,78.25
2022-10-19T19:51:17.902Z,78.71
2022-10-19T19:53:46.119Z,78.62
2022-10-19T19:56:14.290Z,78.21
2022-10-19T19:58:42.108Z,77.67
2022-10-19T20:01:17.074Z,78.22
2022-10-19T20:03:45.788Z,78.07
2022-10-19T20:06:14.285Z,77.68
2022-10-19T20:08:41.229Z,76.76
2022-10-19T20:11:10.967Z,75.76
2022-10-19T20:13:38.279Z,74.61
2022-10-19T20:16:16.314Z,73.88
2022-10-19T20:18:45.147Z,73.75
2022-10-19T20:21:12.698Z,74.10
2022-10-19T20:23:39.609Z,74.65
2022-10-19T20:26:09.011Z,74.64
2022-10-19T20:28:35.847Z,74.60
2022-10-19T20:31:07.626Z,74.54
2022-10-19T20:33:37.378Z,74.63
2022-10-19T20:36:06.478Z,75.19
2022-10-19T20:38:34.491Z,75.27
2022-10-19T20:41:08.047Z,75.42
2022-10-19T20:43:36.573Z,76.56
2022-10-19T20:46:12.726Z,76.49
2022-10-19T20:48:40.367Z,77.14
2022-10-19T20:51:12.053Z,77.50
2022-10-19T20:53:39.154Z,77.83
2022-10-19T20:56:07.838Z,78.18
2022-10-19T20:58:35.917Z,79.07
2022-10-19T21:01:06.991Z,78.58
2022-10-19T21:03:34.110Z,78.59
2022-10-19T21:06:08.484Z,78.17
2022-10-19T21:08:36.479Z,78.47
2022-10-19T21:11:18.428Z,78.70
2022-10-19T21:13:46.100Z,78.12
2022-10-19T21:16:17.751Z,78.14
2022-10-19T21:18:45.535Z,78.56
2022-10-19T21:21:24.097Z,78.38
2022-10-19T21:23:54.269Z,78.02
2022-10-19T21:26:21.609Z,78.19
2022-10-19T21:28:49.833Z,78.37
2022-10-19T21:31:17.310Z,78.07
2022-10-19T21:33:44.830Z,77.90
2022-10-19T21:36:12.889Z,77.45
2022-10-19T21:38:40.226Z,77.49
2022-10-19T21:41:15.171Z,77.00
2022-10-19T21:43:42.576Z,76.65
2022-10-19T21:46:17.726Z,76.64
2022-10-19T21:48:44.965Z,76.66
2022-10-19T21:51:29.786Z,76.30
2022-10-19T21:53:56.744Z,76.23
2022-10-19T21:56:23.922Z,76.29
2022-10-19T21:58:53.270Z,76.24
2022-10-19T22:01:22.870Z,76.22
2022-10-19T22:03:50.305Z,76.21
2022-10-19T22:06:17.210Z,76.25
2022-10-19T22:08:45.871Z,75.89
2022-10-19T22:11:13.638Z,76.00
2022-10-19T22:13:41.391Z,76.15
2022-10-19T22:16:11.343Z,76.27
2022-10-19T22:18:38.475Z,76.25
2022-10-19T22:21:07.312Z,75.79
2022-10-19T22:23:34.194Z,76.17
2022-10-19T22:26:01.310Z,76.04
2022-10-19T22:28:28.510Z,76.48
2022-10-19T22:30:58.980Z,76.31
2022-10-19T22:33:25.977Z,76.71
2022-10-19T22:35:57.154Z,76.75
2022-10-19T22:38:24.738Z,77.23
2022-10-19T22:40:51.858Z,77.78
2022-10-19T22:43:19.378Z,77.53
2022-10-19T22:45:47.769Z,77.40
2022-10-19T22:48:16.104Z,77.71
2022-10-19T22:50:43.438Z,77.72
2022-10-19T22:53:10.826Z,78.19
2022-10-19T22:55:38.419Z,78.14
2022-10-19T22:58:06.744Z,78.46
2022-10-19T23:00:33.687Z,78.84
2022-10-19T23:03:00.878Z,80.02
2022-10-19T23:05:27.796Z,80.97
2022-10-19T23:07:54.682Z,80.98
2022-10-19T23:10:21.878Z,80.94
2022-10-19T23:12:50.486Z,82.04
2022-10-19T23:15:17.827Z,82.79
2022-10-19T23:17:45.018Z,81.25
2022-10-19T23:20:12.728Z,82.44
2022-10-19T23:22:40.170Z,81.37
2022-10-19T23:25:07.705Z,81.29
2022-10-19T23:27:34.796Z,83.56
2022-10-19T23:30:02.471Z,82.07
2022-10-19T23:32:29.643Z,84.70
2022-10-19T23:34:56.843Z,83.53
2022-10-19T23:37:23.732Z,84.63
2022-10-19T23:39:50.864Z,83.40
2022-10-19T23:42:17.742Z,83.04
2022-10-19T23:44:44.580Z,82.25
2022-10-19T23:47:11.693Z,83.49
2022-10-19T23:49:38.547Z,82.60
2022-10-19T23:52:05.509Z,83.31
2022-10-19T23:54:32.714Z,84.32
2022-10-19T23:56:59.681Z,84.59
2022-10-19T23:59:26.527Z,86.33
